Terminal Aerodrome Forecast
Issued by NWS

Home | Current Version | Previous Version | Text Only | Print | Product List | Glossary On
Versions: 1 2 3 4 5 6 7 8 9 10 11 12 13 14 15 16 17 18 19 20 21 22 23 24 25 26 27
276
FTAK31 PANC 060535
TAFAEN
TAF
PAEN 060535Z 0606/0706 02007KT P6SM VCFG SCT001 SCT120
      TEMPO 0606/0610 3/4SM BR BKN001
     FM061000 01004KT P6SM FEW005 SCT050 BKN100
     FM061600 02010KT P6SM FEW030 BKN060=

USA.gov is the U.S. government's official web portal to all federal, state and local government web resources and services.